sensor_id;sensor_type;location;lat;lon;timestamp;pressure;altitude;pressure_sealevel;temperature;humidity
58775;BME280;44545;47.480;19.024;2022-09-09T03:11:34;99884.88;;;16.96;100.00
58775;BME280;44545;47.480;19.024;2022-09-09T03:14:38;99884.88;;;16.96;100.00
58775;BME280;44545;47.480;19.024;2022-09-09T03:17:40;99888.22;;;16.47;100.00
58775;BME280;44545;47.480;19.024;2022-09-09T03:20:43;99909.31;;;16.49;100.00
58775;BME280;44545;47.480;19.024;2022-09-09T03:23:46;99905.62;;;16.42;100.00
58775;BME280;44545;47.480;19.024;2022-09-09T03:26:49;99918.41;;;16.25;100.00
58775;BME280;44545;47.480;19.024;2022-09-09T03:29:52;99909.44;;;16.17;100.00
58775;BME280;44545;47.480;19.024;2022-09-09T03:32:55;99912.34;;;16.30;100.00
58775;BME280;44545;47.480;19.024;2022-09-09T03:35:58;99913.06;;;16.22;100.00
58775;BME280;44545;47.480;19.024;2022-09-09T03:39:00;99905.78;;;16.11;100.00
58775;BME280;44545;47.480;19.024;2022-09-09T03:42:05;99902.03;;;16.01;100.00
58775;BME280;44545;47.480;19.024;2022-09-09T03:45:09;99909.84;;;15.98;100.00
58775;BME280;44545;47.480;19.024;2022-09-09T03:48:13;99909.84;;;15.98;100.00
58775;BME280;44545;47.480;19.024;2022-09-09T03:51:16;99900.16;;;15.97;100.00
58775;BME280;44545;47.480;19.024;2022-09-09T03:54:18;99908.19;;;16.01;100.00
58775;BME280;44545;47.480;19.024;2022-09-09T03:57:20;99922.06;;;15.96;100.00
58775;BME280;44545;47.480;19.024;2022-09-09T04:00:24;99927.34;;;15.96;100.00
58775;BME280;44545;47.480;19.024;2022-09-09T04:03:27;99915.94;;;15.95;100.00
58775;BME280;44545;47.480;19.024;2022-09-09T04:06:29;99917.50;;;15.89;100.00
58775;BME280;44545;47.480;19.024;2022-09-09T04:09:32;99918.75;;;16.03;100.00
58775;BME280;44545;47.480;19.024;2022-09-09T04:12:35;99915.19;;;16.01;100.00
58775;BME280;44545;47.480;19.024;2022-09-09T04:15:37;99911.03;;;16.11;100.00
58775;BME280;44545;47.480;19.024;2022-09-09T04:18:40;99922.25;;;16.03;100.00
58775;BME280;44545;47.480;19.024;2022-09-09T04:21:42;99916.13;;;16.03;100.00
58775;BME280;44545;47.480;19.024;2022-09-09T04:24:45;99912.88;;;16.13;100.00
58775;BME280;44545;47.480;19.024;2022-09-09T04:27:54;99918.81;;;16.06;100.00
58775;BME280;44545;47.480;19.024;2022-09-09T04:31:04;99910.13;;;16.09;100.00
58775;BME280;44545;47.480;19.024;2022-09-09T04:34:08;99907.69;;;16.18;100.00
58775;BME280;44545;47.480;19.024;2022-09-09T04:37:10;99915.78;;;16.25;100.00
58775;BME280;44545;47.480;19.024;2022-09-09T04:40:13;99925.50;;;16.30;100.00
58775;BME280;44545;47.480;19.024;2022-09-09T04:43:16;99922.13;;;16.35;100.00
58775;BME280;44545;47.480;19.024;2022-09-09T04:46:21;99917.84;;;16.39;100.00
58775;BME280;44545;47.480;19.024;2022-09-09T04:49:24;99905.69;;;16.44;100.00
58775;BME280;44545;47.480;19.024;2022-09-09T04:52:29;99899.66;;;16.50;100.00
58775;BME280;44545;47.480;19.024;2022-09-09T04:55:32;99901.69;;;16.61;100.00
58775;BME280;44545;47.480;19.024;2022-09-09T04:58:36;99902.75;;;16.69;100.00
58775;BME280;44545;47.480;19.024;2022-09-09T05:01:39;99902.63;;;16.65;100.00
58775;BME280;44545;47.480;19.024;2022-09-09T05:04:42;99909.00;;;16.75;100.00
58775;BME280;44545;47.480;19.024;2022-09-09T05:07:45;99923.13;;;16.78;100.00
58775;BME280;44545;47.480;19.024;2022-09-09T05:10:48;99915.50;;;16.90;100.00
58775;BME280;44545;47.480;19.024;2022-09-09T05:13:52;99913.78;;;16.93;100.00
58775;BME280;44545;47.480;19.024;2022-09-09T05:16:54;99911.59;;;16.73;100.00
58775;BME280;44545;47.480;19.024;2022-09-09T05:19:58;99915.13;;;16.74;100.00
58775;BME280;44545;47.480;19.024;2022-09-09T05:23:00;99916.03;;;16.76;100.00
58775;BME280;44545;47.480;19.024;2022-09-09T05:26:04;99914.50;;;16.84;100.00
58775;BME280;44545;47.480;19.024;2022-09-09T05:29:07;99922.75;;;17.01;100.00
58775;BME280;44545;47.480;19.024;2022-09-09T05:32:10;99916.03;;;17.15;100.00
58775;BME280;44545;47.480;19.024;2022-09-09T05:35:17;99920.19;;;17.48;100.00
58775;BME280;44545;47.480;19.024;2022-09-09T05:38:21;99918.25;;;17.86;100.00
58775;BME280;44545;47.480;19.024;2022-09-09T05:41:30;99921.50;;;17.73;100.00
58775;BME280;44545;47.480;19.024;2022-09-09T05:44:34;99930.56;;;17.87;100.00
58775;BME280;44545;47.480;19.024;2022-09-09T05:47:37;99927.44;;;18.10;100.00
58775;BME280;44545;47.480;19.024;2022-09-09T05:50:40;99930.28;;;18.21;100.00
58775;BME280;44545;47.480;19.024;2022-09-09T05:53:44;99942.44;;;18.12;100.00
58775;BME280;44545;47.480;19.024;2022-09-09T05:56:47;99937.94;;;18.07;100.00
58775;BME280;44545;47.480;19.024;2022-09-09T05:59:53;99938.03;;;18.11;100.00
58775;BME280;44545;47.480;19.024;2022-09-09T06:02:55;99935.09;;;18.49;100.00
58775;BME280;44545;47.480;19.024;2022-09-09T06:06:01;99936.97;;;18.56;100.00
58775;BME280;44545;47.480;19.024;2022-09-09T06:09:08;99938.72;;;18.56;100.00
58775;BME280;44545;47.480;19.024;2022-09-09T06:12:12;99941.16;;;19.03;100.00
58775;BME280;44545;47.480;19.024;2022-09-09T06:15:15;99937.31;;;19.48;94.64
58775;BME280;44545;47.480;19.024;2022-09-09T06:18:18;99942.94;;;19.79;90.25
58775;BME280;44545;47.480;19.024;2022-09-09T06:21:26;99937.12;;;20.23;85.36
58775;BME280;44545;47.480;19.024;2022-09-09T06:24:29;99940.66;;;20.19;84.79
58775;BME280;44545;47.480;19.024;2022-09-09T06:27:32;99941.56;;;20.22;86.57
58775;BME280;44545;47.480;19.024;2022-09-09T06:30:35;99941.84;;;20.54;85.53
58775;BME280;44545;47.480;19.024;2022-09-09T06:33:40;99935.00;;;20.95;83.71
58775;BME280;44545;47.480;19.024;2022-09-09T06:36:43;99936.09;;;21.41;75.69
58775;BME280;44545;47.480;19.024;2022-09-09T06:39:47;99935.16;;;21.33;74.28
58775;BME280;44545;47.480;19.024;2022-09-09T06:42:50;99933.47;;;21.46;75.12
58775;BME280;44545;47.480;19.024;2022-09-09T06:49:00;99933.37;;;21.34;75.89
58775;BME280;44545;47.480;19.024;2022-09-09T06:52:02;99930.72;;;21.25;78.19
58775;BME280;44545;47.480;19.024;2022-09-09T06:55:05;99936.00;;;21.20;76.30
58775;BME280;44545;47.480;19.024;2022-09-09T06:58:08;99938.50;;;20.89;77.66
58775;BME280;44545;47.480;19.024;2022-09-09T07:01:13;99941.97;;;20.74;79.09
58775;BME280;44545;47.480;19.024;2022-09-09T07:04:16;99943.78;;;20.86;79.48
58775;BME280;44545;47.480;19.024;2022-09-09T07:07:18;99951.78;;;20.92;81.17
58775;BME280;44545;47.480;19.024;2022-09-09T07:10:22;99959.53;;;20.60;83.47
58775;BME280;44545;47.480;19.024;2022-09-09T07:13:25;99960.09;;;20.21;80.87
58775;BME280;44545;47.480;19.024;2022-09-09T07:16:28;99959.03;;;20.02;87.89
58775;BME280;44545;47.480;19.024;2022-09-09T07:19:33;99961.47;;;19.82;87.92
58775;BME280;44545;47.480;19.024;2022-09-09T07:22:36;99957.56;;;20.38;81.52
58775;BME280;44545;47.480;19.024;2022-09-09T07:25:44;99953.75;;;21.35;77.60
58775;BME280;44545;47.480;19.024;2022-09-09T07:28:48;99950.31;;;21.74;75.32
58775;BME280;44545;47.480;19.024;2022-09-09T07:31:51;99952.94;;;21.53;77.96
58775;BME280;44545;47.480;19.024;2022-09-09T07:34:54;99959.16;;;21.64;75.97
58775;BME280;44545;47.480;19.024;2022-09-09T07:37:56;99963.59;;;21.82;73.24
58775;BME280;44545;47.480;19.024;2022-09-09T07:41:05;99960.97;;;21.99;70.28
58775;BME280;44545;47.480;19.024;2022-09-09T07:44:12;99960.12;;;22.23;73.00
58775;BME280;44545;47.480;19.024;2022-09-09T07:47:15;99964.53;;;22.10;73.48
58775;BME280;44545;47.480;19.024;2022-09-09T07:50:17;99961.91;;;22.42;67.96
58775;BME280;44545;47.480;19.024;2022-09-09T07:53:20;99961.91;;;22.55;64.94
58775;BME280;44545;47.480;19.024;2022-09-09T07:56:22;99968.13;;;22.49;68.70
58775;BME280;44545;47.480;19.024;2022-09-09T07:59:25;99963.69;;;22.49;61.93
58775;BME280;44545;47.480;19.024;2022-09-09T08:02:28;99970.72;;;22.06;63.69
58775;BME280;44545;47.480;19.024;2022-09-09T08:05:31;99964.59;;;22.36;67.09
58775;BME280;44545;47.480;19.024;2022-09-09T08:08:35;99960.12;;;22.35;63.10
58775;BME280;44545;47.480;19.024;2022-09-09T08:11:39;99964.53;;;22.62;63.77
58775;BME280;44545;47.480;19.024;2022-09-09T08:14:42;99957.47;;;22.64;66.57
58775;BME280;44545;47.480;19.024;2022-09-09T08:17:44;99959.12;;;22.96;66.21
58775;BME280;44545;47.480;19.024;2022-09-09T08:20:47;99947.69;;;22.76;62.06
58775;BME280;44545;47.480;19.024;2022-09-09T08:23:51;99956.53;;;22.87;63.58
58775;BME280;44545;47.480;19.024;2022-09-09T08:26:59;99957.41;;;22.92;61.73
58775;BME280;44545;47.480;19.024;2022-09-09T08:30:02;99958.28;;;23.02;60.21
58775;BME280;44545;47.480;19.024;2022-09-09T08:33:04;99960.94;;;23.03;60.59
58775;BME280;44545;47.480;19.024;2022-09-09T08:36:10;99951.91;;;23.41;60.64
58775;BME280;44545;47.480;19.024;2022-09-09T08:39:18;99958.94;;;23.57;59.03
58775;BME280;44545;47.480;19.024;2022-09-09T08:52:30;99961.34;;;23.99;55.02
58775;BME280;44545;47.480;19.024;2022-09-09T08:58:53;99965.56;;;24.29;49.22
58775;BME280;44545;47.480;19.024;2022-09-09T09:02:14;99960.12;;;24.41;50.35
58775;BME280;44545;47.480;19.024;2022-09-09T09:11:53;99951.66;;;24.92;46.71
58775;BME280;44545;47.480;19.024;2022-09-09T09:14:59;99948.25;;;24.78;45.80
58775;BME280;44545;47.480;19.024;2022-09-09T09:18:03;99951.66;;;24.92;45.56
58775;BME280;44545;47.480;19.024;2022-09-09T09:21:16;99946.91;;;25.19;44.60
58775;BME280;44545;47.480;19.024;2022-09-09T09:24:34;99942.28;;;25.33;45.98
58775;BME280;44545;47.480;19.024;2022-09-09T09:27:49;99939.50;;;25.41;47.56
58775;BME280;44545;47.480;19.024;2022-09-09T09:31:04;99935.41;;;25.79;47.16
58775;BME280;44545;47.480;19.024;2022-09-09T09:34:09;99918.19;;;26.01;45.23
58775;BME280;44545;47.480;19.024;2022-09-09T09:37:20;99910.91;;;26.09;43.08
58775;BME280;44545;47.480;19.024;2022-09-09T09:40:25;99908.63;;;26.37;41.68
58775;BME280;44545;47.480;19.024;2022-09-09T09:43:36;99911.53;;;26.76;42.89
58775;BME280;44545;47.480;19.024;2022-09-09T09:46:40;99920.91;;;26.96;41.29
58775;BME280;44545;47.480;19.024;2022-09-09T09:49:56;99926.81;;;27.13;41.95
58775;BME280;44545;47.480;19.024;2022-09-09T09:53:05;99931.66;;;27.78;37.56
58775;BME280;44545;47.480;19.024;2022-09-09T09:56:11;99933.56;;;28.48;39.24
58775;BME280;44545;47.480;19.024;2022-09-09T09:59:35;99922.03;;;29.39;37.99
58775;BME280;44545;47.480;19.024;2022-09-09T10:02:41;99926.34;;;29.75;33.37
58775;BME280;44545;47.480;19.024;2022-09-09T10:05:46;99925.91;;;29.59;35.46
58775;BME280;44545;47.480;19.024;2022-09-09T10:08:50;99924.41;;;29.50;38.18
58775;BME280;44545;47.480;19.024;2022-09-09T10:15:33;99925.56;;;29.12;34.49
58775;BME280;44545;47.480;19.024;2022-09-09T10:25:05;99919.94;;;29.49;33.61
58775;BME280;44545;47.480;19.024;2022-09-09T10:28:33;99915.44;;;29.79;34.80
58775;BME280;44545;47.480;19.024;2022-09-09T10:35:25;99902.63;;;28.67;30.71
58775;BME280;44545;47.480;19.024;2022-09-09T10:38:53;99924.41;;;28.88;32.32
58775;BME280;44545;47.480;19.024;2022-09-09T10:42:06;99920.09;;;28.82;31.55
58775;BME280;44545;47.480;19.024;2022-09-09T10:45:20;99921.16;;;29.69;31.56
58775;BME280;44545;47.480;19.024;2022-09-09T10:48:47;99912.94;;;30.55;30.31
58775;BME280;44545;47.480;19.024;2022-09-09T10:55:39;99902.97;;;34.85;24.32
58775;BME280;44545;47.480;19.024;2022-09-09T10:58:53;99904.84;;;35.97;23.78
58775;BME280;44545;47.480;19.024;2022-09-09T11:02:12;99903.59;;;36.79;20.77
58775;BME280;44545;47.480;19.024;2022-09-09T11:08:30;99894.03;;;41.54;17.51
58775;BME280;44545;47.480;19.024;2022-09-09T11:11:39;99886.19;;;44.48;14.02
58775;BME280;44545;47.480;19.024;2022-09-09T11:14:49;99891.81;;;47.79;10.90
58775;BME280;44545;47.480;19.024;2022-09-09T11:17:56;99891.88;;;48.69;11.89
58775;BME280;44545;47.480;19.024;2022-09-09T11:21:01;99880.84;;;51.61;8.86
58775;BME280;44545;47.480;19.024;2022-09-09T11:24:35;99874.25;;;51.62;8.34
58775;BME280;44545;47.480;19.024;2022-09-09T11:37:53;99873.13;;;45.17;12.75
58775;BME280;44545;47.480;19.024;2022-09-09T11:41:04;99878.03;;;38.35;18.86
58775;BME280;44545;47.480;19.024;2022-09-09T11:44:18;99881.09;;;34.72;21.54
58775;BME280;44545;47.480;19.024;2022-09-09T11:47:27;99869.41;;;32.68;25.67
58775;BME280;44545;47.480;19.024;2022-09-09T11:50:35;99865.69;;;32.09;27.37
58775;BME280;44545;47.480;19.024;2022-09-09T11:53:52;99871.47;;;31.09;31.50
58775;BME280;44545;47.480;19.024;2022-09-09T11:56:55;99873.38;;;31.07;29.68
58775;BME280;44545;47.480;19.024;2022-09-09T11:59:58;99863.72;;;30.26;31.01
58775;BME280;44545;47.480;19.024;2022-09-09T12:03:03;99859.81;;;28.94;32.85
58775;BME280;44545;47.480;19.024;2022-09-09T12:06:41;99866.47;;;28.49;36.74
58775;BME280;44545;47.480;19.024;2022-09-09T12:09:51;99865.38;;;28.57;34.34
58775;BME280;44545;47.480;19.024;2022-09-09T12:12:54;99864.69;;;27.77;35.03
58775;BME280;44545;47.480;19.024;2022-09-09T12:15:59;99887.53;;;27.56;36.58
58775;BME280;44545;47.480;19.024;2022-09-09T12:19:13;99900.72;;;27.65;38.69
58775;BME280;44545;47.480;19.024;2022-09-09T12:32:10;99873.72;;;28.10;36.05
58775;BME280;44545;47.480;19.024;2022-09-09T12:35:20;99873.44;;;27.86;36.58
58775;BME280;44545;47.480;19.024;2022-09-09T12:38:32;99862.34;;;27.26;36.93
58775;BME280;44545;47.480;19.024;2022-09-09T12:41:36;99863.00;;;27.35;37.89
58775;BME280;44545;47.480;19.024;2022-09-09T12:44:38;99862.34;;;27.26;37.46
58775;BME280;44545;47.480;19.024;2022-09-09T12:47:46;99859.19;;;27.05;36.94
58775;BME280;44545;47.480;19.024;2022-09-09T12:50:51;99854.84;;;26.99;38.03
58775;BME280;44545;47.480;19.024;2022-09-09T12:53:55;99846.88;;;26.96;37.72
58775;BME280;44545;47.480;19.024;2022-09-09T12:56:58;99843.22;;;27.00;38.25
58775;BME280;44545;47.480;19.024;2022-09-09T13:00:18;99843.16;;;27.03;37.57
58775;BME280;44545;47.480;19.024;2022-09-09T13:03:23;99841.34;;;27.04;37.15
58775;BME280;44545;47.480;19.024;2022-09-09T13:06:28;99833.56;;;26.93;38.30
58775;BME280;44545;47.480;19.024;2022-09-09T13:09:31;99822.28;;;26.79;37.89
58775;BME280;44545;47.480;19.024;2022-09-09T13:12:34;99821.91;;;26.96;37.21
58775;BME280;44545;47.480;19.024;2022-09-09T13:15:36;99810.25;;;26.98;36.85
58775;BME280;44545;47.480;19.024;2022-09-09T13:18:40;99816.47;;;26.99;35.34
58775;BME280;44545;47.480;19.024;2022-09-09T13:21:43;99819.63;;;26.79;35.10
58775;BME280;44545;47.480;19.024;2022-09-09T13:24:45;99801.50;;;26.92;33.47
58775;BME280;44545;47.480;19.024;2022-09-09T13:28:03;99799.03;;;26.81;36.03
58775;BME280;44545;47.480;19.024;2022-09-09T13:31:19;99804.13;;;26.93;37.28
58775;BME280;44545;47.480;19.024;2022-09-09T13:34:30;99801.25;;;27.02;34.93
58775;BME280;44545;47.480;19.024;2022-09-09T13:37:37;99807.34;;;26.69;36.57
58775;BME280;44545;47.480;19.024;2022-09-09T13:40:52;99797.44;;;26.74;35.75
58775;BME280;44545;47.480;19.024;2022-09-09T13:43:54;99803.81;;;26.67;37.93
58775;BME280;44545;47.480;19.024;2022-09-09T13:47:05;99790.91;;;26.42;37.18
58775;BME280;44545;47.480;19.024;2022-09-09T13:50:24;99792.38;;;26.58;39.93
58775;BME280;44545;47.480;19.024;2022-09-09T13:53:27;99789.72;;;26.58;37.09
58775;BME280;44545;47.480;19.024;2022-09-09T13:56:30;99789.00;;;26.92;35.57
58775;BME280;44545;47.480;19.024;2022-09-09T13:59:33;99778.03;;;27.05;35.36
58775;BME280;44545;47.480;19.024;2022-09-09T14:02:56;99779.37;;;27.24;34.21
58775;BME280;44545;47.480;19.024;2022-09-09T14:05:58;99763.66;;;27.83;33.56
58775;BME280;44545;47.480;19.024;2022-09-09T14:09:01;99753.81;;;27.84;32.92
58775;BME280;44545;47.480;19.024;2022-09-09T14:12:03;99759.81;;;27.22;35.83
58775;BME280;44545;47.480;19.024;2022-09-09T14:15:07;99755.00;;;26.96;35.62
58775;BME280;44545;47.480;19.024;2022-09-09T14:18:12;99748.03;;;26.47;35.63
58775;BME280;44545;47.480;19.024;2022-09-09T14:21:15;99748.91;;;26.47;37.97
58775;BME280;44545;47.480;19.024;2022-09-09T14:24:17;99743.50;;;26.50;36.51
58775;BME280;44545;47.480;19.024;2022-09-09T14:27:19;99748.31;;;26.33;36.38
58775;BME280;44545;47.480;19.024;2022-09-09T14:30:22;99757.87;;;26.45;36.53
58775;BME280;44545;47.480;19.024;2022-09-09T14:33:24;99752.62;;;26.40;36.89
58775;BME280;44545;47.480;19.024;2022-09-09T14:36:27;99752.56;;;26.43;36.33
58775;BME280;44545;47.480;19.024;2022-09-09T14:39:29;99754.91;;;26.62;38.98
58775;BME280;44545;47.480;19.024;2022-09-09T14:42:32;99749.75;;;26.52;37.22
58775;BME280;44545;47.480;19.024;2022-09-09T14:45:35;99744.53;;;26.43;36.62
58775;BME280;44545;47.480;19.024;2022-09-09T14:48:39;99749.25;;;26.32;38.33
58775;BME280;44545;47.480;19.024;2022-09-09T14:51:45;99750.97;;;26.34;36.46
58775;BME280;44545;47.480;19.024;2022-09-09T14:54:48;99739.88;;;26.11;38.10
58775;BME280;44545;47.480;19.024;2022-09-09T14:57:51;99748.03;;;26.02;39.56
